Forside
METAR-TAF:

METAR-TAF

Lufthavne :

Olieplatform

D15-fa-1, Holland

Breddekreds: 54-19-32N, længdekreds: 2-56-09E, højde: 36 m

Aktuelle vejr

Denne rapport blev lavet for 24 minutter siden, kl. 01:55 UTC
Vind 20 kt fra nordnordvest
Temperatur 12°C
Fugtighed 88%
Tryk 1031 hPa

METAR: EHDV 250155Z AUTO 34020KT //// // ///////// 12/10 Q1031 RE//

Tid: 04:19 (02:19 UTC)


TAF: fraværende

Vejrobservationer og prognoser fra mere end 4000 lufthavne (METAR og TAF).

De gule og røde prikker repræsenterer de meteorologiske stationer.

Flyt musen over at se navnet på stationen.

Så klik over at se vejr observationer og prognoser.

At skifte det kort: Klik på de grønne knapper med et sort kors for at zoome ind; på den grønne knap med en bindestreg for at zoome ud; eller på de grønne pile for tilstødende kort.


METAR-TAF: